Time;durP1;ratioP1;P1;durP2;ratioP2;P2;SDS_P1;SDS_P2;PMS_P1;PMS_P2;Temp;Humidity;BMP_temperature;BMP_pressure;BME280_temperature;BME280_humidity;BME280_pressure;Samples;Min_cycle;Max_cycle;Signal;HPM_P1;HPM_P2
2021/09/09 00:00:13;;;;;;;24.23;15.45;;;;;;;18.54;72.93;99726.22;5004439;28;20026;-76
2021/09/09 00:02:39;;;;;;;23.60;14.55;;;;;;;18.56;72.53;99718.41;4988199;28;20031;-76
2021/09/09 00:05:06;;;;;;;15.82;12.35;;;;;;;18.58;72.33;99710.56;4994643;28;20076;-75
2021/09/09 00:07:32;;;;;;;18.45;14.38;;;;;;;18.62;72.26;99711.53;4992568;28;20038;-76
2021/09/09 00:09:58;;;;;;;23.58;15.38;;;;;;;18.63;72.05;99707.63;4992739;28;20030;-75
2021/09/09 00:12:24;;;;;;;20.25;14.27;;;;;;;18.64;72.14;99714.75;4989675;28;20034;-76
2021/09/09 00:14:49;;;;;;;20.65;15.73;;;;;;;18.64;72.55;99708.41;4994460;28;20030;-74
2021/09/09 00:17:15;;;;;;;22.35;16.45;;;;;;;18.61;73.22;99709.91;4990053;28;20119;-75
2021/09/09 00:19:40;;;;;;;16.77;13.63;;;;;;;18.60;72.61;99697.22;4985425;28;20041;-75
2021/09/09 00:22:06;;;;;;;14.52;12.52;;;;;;;18.61;72.86;99698.81;4981625;28;20535;-75
2021/09/09 00:24:31;;;;;;;27.27;14.95;;;;;;;18.61;72.58;99696.06;4983538;28;20037;-75
2021/09/09 00:26:57;;;;;;;23.60;15.45;;;;;;;18.62;72.87;99692.13;4990200;28;20030;-73
2021/09/09 00:29:22;;;;;;;21.67;14.45;;;;;;;18.62;72.54;99694.91;4987783;28;20117;-75
2021/09/09 00:31:48;;;;;;;22.45;15.38;;;;;;;18.61;72.91;99686.94;4989108;28;20368;-75
2021/09/09 00:34:13;;;;;;;14.38;11.55;;;;;;;18.66;72.83;99690.31;4985859;28;20026;-74
2021/09/09 00:36:39;;;;;;;18.10;14.23;;;;;;;18.66;72.32;99684.78;4992307;28;20045;-75
2021/09/09 00:39:04;;;;;;;18.77;12.82;;;;;;;18.67;72.81;99689.19;4984129;28;20040;-75
2021/09/09 00:41:30;;;;;;;24.60;13.38;;;;;;;18.68;72.63;99692.75;4992250;28;20121;-76
2021/09/09 00:43:57;;;;;;;11.70;10.27;;;;;;;18.70;72.77;99689.63;4992842;28;20030;-75
2021/09/09 00:46:23;;;;;;;13.65;11.60;;;;;;;18.74;72.79;99687.81;4992318;28;20425;-76
2021/09/09 00:48:50;;;;;;;20.98;14.50;;;;;;;18.73;72.47;99694.50;4988825;28;20033;-75
2021/09/09 00:51:15;;;;;;;24.85;14.52;;;;;;;18.75;72.74;99689.41;4986948;28;20081;-75
2021/09/09 00:53:42;;;;;;;20.40;13.35;;;;;;;18.72;72.73;99676.25;4991861;28;20050;-74
2021/09/09 00:56:08;;;;;;;15.70;11.60;;;;;;;18.73;72.89;99678.69;4992580;28;20030;-75
2021/09/09 00:58:36;;;;;;;12.15;10.95;;;;;;;18.74;72.85;99679.50;4992255;28;20046;-75
2021/09/09 01:01:01;;;;;;;10.55;9.52;;;;;;;18.78;72.19;99672.94;5010035;28;20038;-74
2021/09/09 01:03:27;;;;;;;8.52;7.80;;;;;;;18.83;71.82;99671.94;4989593;28;20425;-72
2021/09/09 01:05:52;;;;;;;10.30;9.13;;;;;;;18.85;72.42;99666.84;4986141;28;20034;-71
2021/09/09 01:08:18;;;;;;;13.43;10.95;;;;;;;18.85;71.99;99664.06;4987429;28;20400;-73
2021/09/09 01:10:44;;;;;;;8.73;8.02;;;;;;;18.86;71.88;99668.50;4992229;28;20090;-73
2021/09/09 01:13:10;;;;;;;6.05;5.55;;;;;;;18.87;71.85;99667.38;4983446;28;20034;-75
2021/09/09 01:15:45;;;;;;;11.05;9.88;;;;;;;18.94;71.60;99678.69;4996852;28;20488;-75
2021/09/09 01:18:13;;;;;;;8.90;8.13;;;;;;;18.93;71.58;99665.19;4995379;28;20030;-75
2021/09/09 01:20:39;;;;;;;4.47;4.15;;;;;;;18.98;71.63;99667.72;4995040;28;20073;-76
2021/09/09 01:23:05;;;;;;;6.55;6.15;;;;;;;19.04;71.70;99671.09;4995731;28;20022;-73
2021/09/09 01:25:32;;;;;;;7.60;6.28;;;;;;;19.06;71.16;99663.28;4996130;28;20125;-73
2021/09/09 01:27:57;;;;;;;9.32;8.50;;;;;;;19.09;70.82;99673.69;4991111;28;20021;-74
2021/09/09 01:30:23;;;;;;;13.38;10.75;;;;;;;19.07;71.00;99675.97;4989560;28;20428;-75
2021/09/09 01:32:48;;;;;;;8.05;7.32;;;;;;;19.09;71.21;99679.22;4979073;28;20031;-75
2021/09/09 01:35:13;;;;;;;10.55;9.30;;;;;;;19.09;71.53;99673.69;4997197;28;20054;-76
2021/09/09 01:37:39;;;;;;;14.95;12.00;;;;;;;19.08;71.43;99667.31;4990551;28;20041;-75
2021/09/09 01:40:05;;;;;;;13.07;10.95;;;;;;;19.10;71.12;99670.56;4997342;28;20037;-75
2021/09/09 01:42:31;;;;;;;19.52;12.40;;;;;;;19.10;71.23;99669.72;4995796;28;20097;-74
2021/09/09 01:44:57;;;;;;;20.05;13.18;;;;;;;19.11;71.34;99676.91;4992395;28;20108;-74
2021/09/09 01:47:22;;;;;;;14.68;11.95;;;;;;;19.07;71.46;99673.19;4997145;28;20042;-74
2021/09/09 01:49:48;;;;;;;21.02;11.02;;;;;;;19.07;71.00;99675.97;4978743;28;20876;-77
2021/09/09 01:52:14;;;;;;;16.70;12.48;;;;;;;19.04;71.97;99660.03;4982645;28;20022;-76
2021/09/09 01:54:39;;;;;;;18.50;11.68;;;;;;;18.99;71.89;99658.28;5006842;28;20056;-75
2021/09/09 01:57:06;;;;;;;12.65;11.27;;;;;;;18.98;71.65;99664.97;5010246;28;20042;-74
2021/09/09 01:59:31;;;;;;;12.95;10.23;;;;;;;18.98;71.41;99657.47;5011491;28;20029;-75
2021/09/09 02:01:56;;;;;;;12.98;9.98;;;;;;;18.96;71.73;99664.50;4978112;28;20072;-74
2021/09/09 02:04:23;;;;;;;13.60;10.77;;;;;;;18.89;71.73;99659.50;5004422;28;20026;-74
2021/09/09 02:06:48;;;;;;;12.75;9.50;;;;;;;18.88;72.38;99663.44;5011742;28;20026;-74
2021/09/09 02:09:14;;;;;;;12.52;11.15;;;;;;;18.84;72.18;99663.28;5004961;28;20076;-73
2021/09/09 02:11:39;;;;;;;16.23;11.35;;;;;;;18.82;72.43;99664.75;5010501;28;20045;-74
2021/09/09 02:14:05;;;;;;;13.90;11.40;;;;;;;18.81;72.77;99663.16;5009851;28;20029;-74
2021/09/09 02:16:30;;;;;;;9.57;8.57;;;;;;;18.81;72.89;99660.38;5013722;28;20417;-73
2021/09/09 02:18:57;;;;;;;9.18;8.35;;;;;;;18.81;72.83;99650.13;4978927;28;20036;-73
2021/09/09 02:21:23;;;;;;;9.23;8.25;;;;;;;18.82;72.67;99665.59;5008438;28;20112;-73
2021/09/09 02:23:48;;;;;;;9.65;8.90;;;;;;;18.79;72.70;99659.91;5015133;28;20654;-74
2021/09/09 02:26:14;;;;;;;7.20;6.75;;;;;;;18.82;72.56;99660.06;5016475;28;20034;-75
2021/09/09 02:28:39;;;;;;;7.70;6.95;;;;;;;18.84;72.71;99645.84;4994673;28;20040;-74
2021/09/09 02:31:05;;;;;;;11.63;8.57;;;;;;;18.89;72.47;99651.19;5016906;28;20030;-73
2021/09/09 02:33:30;;;;;;;14.75;9.07;;;;;;;18.91;72.04;99651.69;5002476;28;20029;-74
2021/09/09 02:35:56;;;;;;;10.98;9.43;;;;;;;18.91;72.22;99646.16;5011730;28;20030;-75
2021/09/09 02:38:24;;;;;;;14.43;10.88;;;;;;;18.85;72.83;99636.38;5014531;28;20479;-74
2021/09/09 02:40:50;;;;;;;14.40;9.88;;;;;;;18.79;72.73;99638.56;5010555;28;20093;-75
2021/09/09 02:43:15;;;;;;;7.72;7.18;;;;;;;18.79;72.79;99646.06;4995282;28;20041;-74
2021/09/09 02:45:40;;;;;;;7.93;7.32;;;;;;;18.78;73.03;99642.50;5012662;28;20045;-75
2021/09/09 02:48:06;;;;;;;5.82;5.30;;;;;;;18.80;72.72;99639.38;4993796;28;20058;-73
2021/09/09 02:50:31;;;;;;;5.95;5.38;;;;;;;18.84;72.83;99640.31;4988444;28;20141;-74
2021/09/09 02:52:58;;;;;;;6.45;6.05;;;;;;;18.87;72.63;99630.56;5014381;28;20026;-76
2021/09/09 02:55:23;;;;;;;8.27;6.75;;;;;;;18.85;72.67;99633.59;5007715;28;20042;-75
2021/09/09 02:57:49;;;;;;;11.55;9.25;;;;;;;18.83;72.96;99630.38;5009517;28;20029;-77
2021/09/09 03:00:15;;;;;;;11.57;8.32;;;;;;;18.83;73.01;99633.16;4995721;28;20022;-76
2021/09/09 03:02:41;;;;;;;6.82;6.22;;;;;;;18.84;72.63;99634.78;5011177;28;20337;-76
2021/09/09 03:05:08;;;;;;;10.45;8.63;;;;;;;18.84;72.77;99630.03;4994880;28;20116;-76
2021/09/09 03:07:33;;;;;;;6.78;6.18;;;;;;;18.86;72.57;99638.03;4993874;28;20029;-76
2021/09/09 03:09:59;;;;;;;5.18;4.90;;;;;;;18.88;72.90;99641.28;4994608;28;20044;-76
2021/09/09 03:12:24;;;;;;;4.72;4.38;;;;;;;18.91;72.02;99646.16;4994292;28;20112;-76
2021/09/09 03:14:50;;;;;;;6.07;5.50;;;;;;;18.94;72.05;99639.91;5012823;28;20657;-76
2021/09/09 03:17:15;;;;;;;5.78;5.38;;;;;;;18.96;72.46;99637.59;4994488;28;20032;-76
2021/09/09 03:19:41;;;;;;;4.70;4.40;;;;;;;18.98;72.13;99643.63;4997385;28;20116;-76
2021/09/09 03:22:06;;;;;;;5.13;4.82;;;;;;;19.00;72.08;99632.22;4981934;28;20037;-75
2021/09/09 03:24:33;;;;;;;6.97;6.05;;;;;;;18.99;72.21;99625.84;4980657;28;20057;-74
2021/09/09 03:26:58;;;;;;;7.32;6.68;;;;;;;18.98;72.44;99629.78;5012786;28;20025;-75
2021/09/09 03:29:24;;;;;;;7.75;7.03;;;;;;;18.99;72.46;99636.91;5006168;28;20026;-75
2021/09/09 03:31:49;;;;;;;6.32;5.85;;;;;;;19.01;72.39;99634.63;4991448;28;20104;-76
2021/09/09 03:34:15;;;;;;;6.90;6.05;;;;;;;19.01;72.39;99634.63;4997384;28;20041;-75
2021/09/09 03:36:40;;;;;;;8.43;7.47;;;;;;;18.98;72.00;99640.84;5016036;28;20034;-76
2021/09/09 03:39:06;;;;;;;7.47;6.20;;;;;;;18.96;72.23;99632.06;4997951;28;20028;-75
2021/09/09 03:41:31;;;;;;;4.43;3.97;;;;;;;18.95;72.18;99636.00;5009845;28;20491;-76
2021/09/09 03:43:57;;;;;;;3.38;3.17;;;;;;;18.98;72.35;99634.50;5020714;28;20025;-77
2021/09/09 03:46:22;;;;;;;12.85;9.35;;;;;;;18.94;72.13;99626.06;5011503;28;20571;-77
2021/09/09 03:48:48;;;;;;;8.70;7.13;;;;;;;18.98;72.20;99629.78;5010780;28;20033;-77
2021/09/09 03:51:13;;;;;;;5.55;5.10;;;;;;;19.02;72.06;99632.66;5013012;28;20030;-76
2021/09/09 03:53:39;;;;;;;8.88;5.32;;;;;;;19.00;72.33;99638.53;5011649;28;20037;-75
2021/09/09 03:56:05;;;;;;;8.35;5.05;;;;;;;19.01;72.29;99633.81;4968659;28;20034;-77
2021/09/09 03:58:30;;;;;;;6.25;5.75;;;;;;;19.00;71.78;99638.53;5015419;28;20022;-77
2021/09/09 04:00:56;;;;;;;7.68;5.97;;;;;;;19.00;72.59;99635.78;5006824;28;20022;-77
2021/09/09 04:03:21;;;;;;;4.68;4.28;;;;;;;19.02;72.38;99636.22;4998016;28;20112;-76
2021/09/09 04:05:47;;;;;;;4.47;4.28;;;;;;;19.04;71.80;99637.84;4981920;28;20033;-77
2021/09/09 04:08:12;;;;;;;6.57;5.97;;;;;;;19.04;71.94;99627.59;5010130;28;20030;-77
2021/09/09 04:10:38;;;;;;;7.05;6.45;;;;;;;19.08;71.49;99622.97;4978454;28;20574;-77
2021/09/09 04:13:03;;;;;;;11.77;7.10;;;;;;;19.06;72.31;99625.28;5014522;28;20030;-76
2021/09/09 04:15:29;;;;;;;10.02;9.00;;;;;;;19.02;72.02;99625.16;4992406;28;20034;-77
2021/09/09 04:17:54;;;;;;;17.88;8.63;;;;;;;18.97;72.24;99611.53;4977752;28;20034;-77
2021/09/09 04:20:19;;;;;;;5.28;4.88;;;;;;;18.94;72.43;99615.00;4982567;28;20107;-76
2021/09/09 04:22:45;;;;;;;3.90;3.70;;;;;;;18.94;72.59;99616.94;5009954;28;20030;-76
2021/09/09 04:25:10;;;;;;;3.53;3.22;;;;;;;18.95;71.98;99613.03;5013002;28;20447;-76
2021/09/09 04:27:36;;;;;;;4.45;4.15;;;;;;;18.96;72.12;99609.09;5011572;28;20049;-77
2021/09/09 04:30:03;;;;;;;6.43;5.85;;;;;;;18.92;72.07;99606.19;4996357;28;20061;-76
2021/09/09 04:32:30;;;;;;;4.72;4.43;;;;;;;18.86;72.30;99596.50;5012321;28;20410;-77
2021/09/09 04:34:55;;;;;;;6.65;6.15;;;;;;;18.86;72.39;99596.50;4996043;28;20103;-75
2021/09/09 04:37:21;;;;;;;5.78;5.07;;;;;;;18.84;72.21;99590.47;5009813;28;20030;-75
2021/09/09 04:39:46;;;;;;;7.13;5.50;;;;;;;18.82;72.32;99587.22;4978340;28;20507;-76
2021/09/09 04:42:12;;;;;;;4.05;3.85;;;;;;;18.85;72.57;99594.84;5013310;28;20029;-76
2021/09/09 04:44:37;;;;;;;3.97;3.67;;;;;;;18.91;72.53;99601.00;5010830;28;21781;-75
2021/09/09 04:47:08;;;;;;;4.95;4.55;;;;;;;18.87;72.20;99600.88;4996928;28;20032;-76
2021/09/09 04:49:33;;;;;;;7.38;6.57;;;;;;;18.85;72.38;99603.13;5007891;28;20030;-76
2021/09/09 04:51:58;;;;;;;12.35;8.00;;;;;;;18.84;72.71;99604.31;4997627;28;20034;-77
2021/09/09 04:54:24;;;;;;;6.53;5.90;;;;;;;18.85;71.96;99603.13;4996085;28;20057;-75
2021/09/09 04:56:49;;;;;;;10.82;7.43;;;;;;;18.83;72.61;99599.91;5003467;28;20089;-76
2021/09/09 04:59:15;;;;;;;9.48;6.75;;;;;;;18.84;72.97;99612.63;5008483;28;20025;-76
2021/09/09 05:01:40;;;;;;;6.40;5.88;;;;;;;18.79;72.21;99598.97;5008378;28;20026;-76
2021/09/09 05:04:06;;;;;;;6.13;5.57;;;;;;;18.77;72.98;99595.75;5013414;28;20034;-75
2021/09/09 05:06:31;;;;;;;9.65;6.95;;;;;;;18.77;72.77;99595.75;5013697;28;20030;-75
2021/09/09 05:08:57;;;;;;;6.30;5.80;;;;;;;18.75;72.99;99598.88;5011814;28;20030;-76
2021/09/09 05:11:22;;;;;;;8.65;6.78;;;;;;;18.70;73.22;99607.38;5011624;28;20113;-75
2021/09/09 05:13:48;;;;;;;8.70;7.88;;;;;;;18.64;73.17;99608.75;4988316;28;20029;-75
2021/09/09 05:16:14;;;;;;;8.57;6.35;;;;;;;18.59;73.62;99607.00;4990271;28;20034;-75
2021/09/09 05:18:39;;;;;;;7.30;6.65;;;;;;;18.57;73.86;99598.19;5004822;28;20026;-75
2021/09/09 05:21:05;;;;;;;5.20;4.70;;;;;;;18.58;73.64;99588.75;4991860;28;20065;-75
2021/09/09 05:23:30;;;;;;;3.45;3.25;;;;;;;18.61;73.77;99590.84;4991515;28;20032;-76
2021/09/09 05:25:56;;;;;;;2.97;2.60;;;;;;;18.67;73.76;99597.81;5015121;28;20032;-76
2021/09/09 05:28:21;;;;;;;4.70;4.30;;;;;;;18.69;73.70;99605.78;5006605;28;20034;-77
2021/09/09 05:30:47;;;;;;;6.43;5.93;;;;;;;18.69;73.78;99607.72;5007482;28;20037;-76
2021/09/09 05:33:13;;;;;;;13.38;7.55;;;;;;;18.62;73.59;99614.63;5008621;28;20029;-77
2021/09/09 05:35:42;;;;;;;9.95;7.32;;;;;;;18.57;73.67;99609.28;5004229;28;20037;-75
2021/09/09 05:38:08;;;;;;;8.15;7.32;;;;;;;18.50;74.08;99617.34;4981717;28;20247;-78
2021/09/09 05:40:34;;;;;;;7.07;6.65;;;;;;;18.48;74.52;99609.34;5007621;28;20077;-77
2021/09/09 05:42:59;;;;;;;5.93;5.40;;;;;;;18.46;74.36;99619.16;4991989;28;20161;-76
2021/09/09 05:45:25;;;;;;;11.80;6.30;;;;;;;18.45;74.80;99615.56;4995473;28;20037;-76
2021/09/09 05:47:50;;;;;;;5.18;4.78;;;;;;;18.45;74.24;99623.06;4988736;28;20029;-76
2021/09/09 05:50:17;;;;;;;5.18;4.78;;;;;;;18.43;74.76;99626.19;5012696;28;20163;-75
2021/09/09 05:52:43;;;;;;;6.20;5.53;;;;;;;18.44;74.50;99622.28;4994269;28;20044;-75
2021/09/09 05:55:10;;;;;;;3.65;3.35;;;;;;;18.49;74.84;99612.94;5001360;28;20049;-73
2021/09/09 05:57:36;;;;;;;4.78;4.38;;;;;;;18.52;74.49;99609.50;5000254;28;20061;-74
2021/09/09 06:00:02;;;;;;;7.20;6.63;;;;;;;18.54;74.78;99609.97;4994281;28;20030;-75
2021/09/09 06:02:28;;;;;;;4.95;4.65;;;;;;;18.54;74.50;99618.25;5012415;28;20036;-75
2021/09/09 06:04:55;;;;;;;5.50;5.00;;;;;;;18.55;74.32;99603.28;4982889;28;20073;-76
2021/09/09 06:07:22;;;;;;;6.60;6.05;;;;;;;18.56;74.40;99613.22;5013822;28;20029;-75
2021/09/09 06:09:48;;;;;;;6.32;5.72;;;;;;;18.56;75.09;99602.13;4987499;28;20030;-76
2021/09/09 06:12:14;;;;;;;6.38;5.90;;;;;;;18.55;74.94;99599.72;5013016;28;20030;-76
2021/09/09 06:14:39;;;;;;;9.20;6.72;;;;;;;18.56;74.80;99613.22;4976865;28;20104;-77
2021/09/09 06:17:05;;;;;;;10.85;8.57;;;;;;;18.50;75.24;99609.03;5004469;28;20440;-77
2021/09/09 06:19:30;;;;;;;11.63;8.88;;;;;;;18.45;76.10;99612.00;5008393;28;20018;-76
2021/09/09 06:21:57;;;;;;;13.70;8.02;;;;;;;18.40;76.10;99614.97;4995550;28;20053;-76
2021/09/09 06:24:23;;;;;;;8.25;7.55;;;;;;;18.38;76.49;99606.19;5021642;28;20399;-76
2021/09/09 06:26:48;;;;;;;9.45;6.82;;;;;;;18.38;76.34;99601.47;5001165;28;20034;-75
2021/09/09 06:29:14;;;;;;;10.13;6.70;;;;;;;18.39;76.69;99602.28;5011619;28;20030;-75
2021/09/09 06:31:39;;;;;;;9.30;6.93;;;;;;;18.43;76.68;99608.78;5002715;28;20029;-74
2021/09/09 06:34:04;;;;;;;7.15;6.45;;;;;;;18.40;76.32;99601.13;5009531;28;20041;-74
2021/09/09 06:36:30;;;;;;;6.32;5.80;;;;;;;18.43;76.50;99597.69;5008616;28;20034;-73
2021/09/09 06:38:55;;;;;;;5.25;4.85;;;;;;;18.48;76.61;99598.28;4994574;28;20048;-76
2021/09/09 06:41:21;;;;;;;5.95;5.55;;;;;;;18.48;76.50;99589.19;4990503;28;20029;-76
2021/09/09 06:43:46;;;;;;;5.82;5.28;;;;;;;18.47;77.10;99593.09;5014490;28;20433;-73
2021/09/09 06:46:12;;;;;;;5.07;4.80;;;;;;;18.45;77.35;99595.41;5005883;28;20056;-73
2021/09/09 06:48:37;;;;;;;4.95;4.70;;;;;;;18.42;76.82;99596.06;5007924;28;20387;-73
2021/09/09 06:51:03;;;;;;;3.60;3.40;;;;;;;18.48;77.30;99589.97;5013856;28;20041;-74
2021/09/09 06:53:30;;;;;;;4.70;4.40;;;;;;;18.57;76.70;99598.19;4996911;28;20034;-77
2021/09/09 06:55:59;;;;;;;3.53;3.33;;;;;;;18.64;76.88;99587.38;4981407;28;20082;-75
2021/09/09 06:58:25;;;;;;;4.38;4.00;;;;;;;18.73;76.41;99584.53;5008976;28;20452;-76
2021/09/09 07:00:50;;;;;;;3.13;3.03;;;;;;;18.80;76.58;99590.31;4989901;28;20029;-76
2021/09/09 07:03:17;;;;;;;3.25;2.45;;;;;;;18.86;76.14;99588.19;5008103;28;20084;-76
2021/09/09 07:05:46;;;;;;;3.88;3.65;;;;;;;18.92;76.25;99586.00;5009113;28;20033;-74
2021/09/09 07:08:14;;;;;;;4.30;4.00;;;;;;;18.95;76.14;99588.91;5010904;28;20058;-74
2021/09/09 07:10:40;;;;;;;3.00;2.80;;;;;;;18.94;75.55;99589.22;5012078;28;20057;-78
2021/09/09 07:13:06;;;;;;;2.10;2.00;;;;;;;18.91;76.31;99581.59;4974178;28;20066;-76
2021/09/09 07:15:40;;;;;;;1.75;1.65;;;;;;;18.94;75.77;99590.06;4990982;28;21325;-78
2021/09/09 07:18:05;;;;;;;1.27;1.27;;;;;;;18.94;75.77;99578.97;4991237;28;20034;-77
2021/09/09 07:20:31;;;;;;;1.33;1.23;;;;;;;19.08;76.14;99600.81;5004333;28;20026;-77
2021/09/09 07:22:56;;;;;;;1.00;1.00;;;;;;;19.17;75.28;99597.94;5011408;28;20505;-78
2021/09/09 07:25:22;;;;;;;1.98;1.88;;;;;;;19.19;75.41;99595.66;5013340;28;20037;-76
2021/09/09 07:27:47;;;;;;;1.90;1.80;;;;;;;19.23;75.10;99595.75;5004100;28;20639;-78
2021/09/09 07:30:13;;;;;;;1.85;1.75;;;;;;;19.28;75.24;99598.31;4990362;28;20151;-77
2021/09/09 07:32:38;;;;;;;3.17;3.08;;;;;;;19.30;74.75;99598.75;5009084;28;20036;-77
2021/09/09 07:35:04;;;;;;;2.28;1.90;;;;;;;19.36;74.61;99606.53;5007162;28;20039;-78
2021/09/09 07:37:35;;;;;;;2.38;2.28;;;;;;;19.40;74.61;99601.09;5001664;28;20025;-76
2021/09/09 07:40:09;;;;;;;2.55;2.45;;;;;;;19.41;74.78;99596.38;5018034;28;20495;-76
2021/09/09 07:42:40;;;;;;;2.45;2.35;;;;;;;19.45;74.93;99608.34;5014277;28;20029;-77
2021/09/09 07:45:06;;;;;;;3.03;2.92;;;;;;;19.45;74.48;99598.09;5006666;28;20041;-77
2021/09/09 07:47:31;;;;;;;2.85;2.20;;;;;;;19.53;74.35;99613.00;5007506;28;20037;-76
2021/09/09 07:49:57;;;;;;;1.10;1.10;;;;;;;19.58;74.08;99607.22;5009348;28;20026;-79
2021/09/09 07:52:23;;;;;;;1.38;1.38;;;;;;;19.66;74.46;99603.50;5007230;28;20069;-77
2021/09/09 07:54:49;;;;;;;1.77;1.75;;;;;;;19.78;74.52;99607.44;5012231;28;20052;-77
2021/09/09 07:57:14;;;;;;;1.63;1.52;;;;;;;19.82;74.15;99597.31;5008810;28;20041;-73
2021/09/09 07:59:40;;;;;;;1.40;1.40;;;;;;;19.91;73.88;99603.53;4991967;28;20041;-75
2021/09/09 08:02:06;;;;;;;1.67;1.58;;;;;;;19.98;73.38;99609.28;5009247;28;20192;-74
2021/09/09 08:04:33;;;;;;;2.10;2.00;;;;;;;19.98;73.48;99603.75;5003536;28;20026;-75
2021/09/09 08:06:59;;;;;;;1.92;1.83;;;;;;;20.00;73.34;99601.41;5005160;28;20124;-76
2021/09/09 08:09:24;;;;;;;1.27;1.27;;;;;;;20.05;73.08;99609.50;4990370;28;20105;-75
2021/09/09 08:11:50;;;;;;;1.08;1.00;;;;;;;20.10;73.16;99611.22;5006192;28;20037;-73
2021/09/09 08:14:15;;;;;;;1.02;1.02;;;;;;;20.12;73.18;99613.66;4987044;28;20470;-72
2021/09/09 08:16:41;;;;;;;1.20;1.10;;;;;;;20.16;73.18;99600.69;4991199;28;20132;-72
2021/09/09 08:19:06;;;;;;;1.42;1.33;;;;;;;20.25;72.95;99606.91;5007797;28;20464;-71
2021/09/09 08:21:32;;;;;;;0.57;0.57;;;;;;;20.24;72.89;99605.31;5005030;28;20022;-72
2021/09/09 08:23:57;;;;;;;0.75;0.75;;;;;;;20.29;73.08;99602.28;4987130;28;20033;-72
2021/09/09 08:26:23;;;;;;;0.40;0.40;;;;;;;20.36;72.91;99608.03;4995095;28;20029;-71
2021/09/09 08:28:49;;;;;;;0.73;0.47;;;;;;;20.40;72.83;99603.41;5008494;28;20030;-71
2021/09/09 08:31:14;;;;;;;0.20;0.20;;;;;;;20.50;72.48;99595.72;5005536;28;20038;-71
2021/09/09 08:33:42;;;;;;;0.28;0.28;;;;;;;20.58;72.33;99605.88;5005269;28;20042;-70
2021/09/09 08:36:09;;;;;;;0.98;0.60;;;;;;;20.61;72.23;99596.03;5000134;28;20399;-73
2021/09/09 08:38:35;;;;;;;0.15;0.15;;;;;;;20.68;72.04;99596.28;4988458;28;20038;-71
2021/09/09 08:41:03;;;;;;;0.30;0.30;;;;;;;20.75;71.78;99593.69;5006109;28;20057;-72
2021/09/09 08:43:29;;;;;;;0.30;0.30;;;;;;;20.80;71.38;99595.41;5005081;28;20030;-71
2021/09/09 08:45:58;;;;;;;0.20;0.20;;;;;;;20.87;71.60;99593.63;5008669;28;20708;-70
2021/09/09 08:48:24;;;;;;;0.70;0.70;;;;;;;20.89;71.05;99590.47;5002789;28;20140;-72
2021/09/09 08:50:50;;;;;;;0.60;0.60;;;;;;;20.90;70.90;99592.09;5009167;28;20026;-72
2021/09/09 08:53:18;;;;;;;0.40;0.40;;;;;;;20.94;71.33;99587.44;5004266;28;20030;-71
2021/09/09 08:55:43;;;;;;;0.43;0.43;;;;;;;21.01;70.82;99593.19;5006007;28;20045;-72
2021/09/09 08:58:10;;;;;;;0.60;0.60;;;;;;;21.05;71.11;99593.28;5016255;28;20022;-71
2021/09/09 09:00:37;;;;;;;0.40;0.40;;;;;;;21.19;70.83;99592.84;5009942;28;20018;-71
2021/09/09 09:03:03;;;;;;;0.70;0.70;;;;;;;21.22;70.04;99586.56;4992699;28;20037;-71
2021/09/09 09:05:37;;;;;;;0.40;0.40;;;;;;;21.21;70.32;99596.06;5000506;28;20042;-71
2021/09/09 09:08:04;;;;;;;0.60;0.60;;;;;;;21.19;70.41;99587.31;5018456;28;20026;-71
2021/09/09 09:10:32;;;;;;;0.82;0.65;;;;;;;21.05;70.29;99591.31;5015394;28;20026;-72
2021/09/09 09:12:58;;;;;;;0.38;0.38;;;;;;;21.03;70.40;99595.63;5008847;28;20022;-71
2021/09/09 09:15:29;;;;;;;0.38;0.30;;;;;;;21.04;70.77;99592.47;4987731;28;20030;-71
2021/09/09 09:18:06;;;;;;;0.60;0.60;;;;;;;21.08;70.40;99604.50;5030159;28;20035;-71
2021/09/09 09:20:49;;;;;;;0.30;0.30;;;;;;;21.05;70.29;99604.41;5018087;28;20034;-70
2021/09/09 09:23:24;;;;;;;0.20;0.20;;;;;;;21.02;70.75;99603.13;5026921;28;20013;-71
2021/09/09 09:26:01;;;;;;;0.82;0.82;;;;;;;20.96;70.18;99606.53;5025955;28;20595;-69
2021/09/09 09:28:46;;;;;;;0.60;0.60;;;;;;;20.82;70.32;99613.34;5011572;28;20014;-71
2021/09/09 09:31:21;;;;;;;0.50;0.50;;;;;;;20.64;70.68;99607.25;5028419;28;20018;-70
2021/09/09 09:33:50;;;;;;;0.47;0.40;;;;;;;20.53;71.14;99603.34;5031444;28;20072;-71
2021/09/09 09:36:26;;;;;;;1.25;0.90;;;;;;;20.46;71.58;99600.38;5017465;28;20025;-71
2021/09/09 09:38:54;;;;;;;1.77;1.67;;;;;;;20.35;71.81;99609.19;5005875;28;20400;-71
2021/09/09 09:41:24;;;;;;;2.20;2.10;;;;;;;20.26;72.16;99607.75;5009593;28;20384;-71
2021/09/09 09:43:52;;;;;;;2.50;2.30;;;;;;;20.13;72.81;99606.94;5005519;28;20042;-71
2021/09/09 09:46:39;;;;;;;3.28;1.77;;;;;;;20.16;73.01;99609.03;5003711;28;20751;-71
2021/09/09 09:49:19;;;;;;;1.05;0.95;;;;;;;20.24;72.79;99605.31;5006384;28;20375;-71
2021/09/09 09:51:47;;;;;;;1.08;1.08;;;;;;;20.29;72.96;99596.72;5009671;28;20030;-71
2021/09/09 09:54:14;;;;;;;0.57;0.57;;;;;;;20.36;72.95;99599.72;5007689;28;20169;-72
2021/09/09 09:56:41;;;;;;;0.57;0.57;;;;;;;20.51;72.99;99594.56;5007991;28;20042;-72
2021/09/09 09:59:07;;;;;;;0.25;0.25;;;;;;;20.72;72.64;99600.75;4999974;28;20763;-71
2021/09/09 10:01:34;;;;;;;0.90;0.90;;;;;;;20.89;72.50;99601.59;5006211;28;20140;-72
2021/09/09 10:04:05;;;;;;;0.55;0.55;;;;;;;21.13;72.50;99588.72;4995901;28;20293;-71
2021/09/09 10:06:31;;;;;;;0.63;0.63;;;;;;;21.38;72.23;99590.16;4990261;28;20738;-72
2021/09/09 10:08:57;;;;;;;2.42;1.20;;;;;;;21.59;71.73;99583.53;4987692;28;20037;-71
2021/09/09 10:11:22;;;;;;;0.95;0.90;;;;;;;21.58;71.36;99587.47;5000760;28;20079;-71
2021/09/09 10:13:48;;;;;;;1.83;1.52;;;;;;;21.53;71.27;99587.75;4991036;28;20026;-71
2021/09/09 10:16:16;;;;;;;1.98;1.40;;;;;;;21.46;71.14;99588.34;5005324;28;20033;-71
2021/09/09 10:18:45;;;;;;;1.63;0.90;;;;;;;21.35;71.30;99585.31;5005484;28;20112;-72
2021/09/09 10:21:11;;;;;;;2.75;1.35;;;;;;;21.23;71.18;99585.38;4990088;28;20463;-72
2021/09/09 10:23:38;;;;;;;0.80;0.80;;;;;;;21.15;71.83;99591.94;4969156;28;20029;-71
2021/09/09 10:26:04;;;;;;;4.88;1.00;;;;;;;21.07;72.05;99585.38;4990131;28;20048;-71
2021/09/09 10:28:33;;;;;;;4.55;0.90;;;;;;;21.04;72.15;99586.09;5006910;28;20030;-71
2021/09/09 10:31:11;;;;;;;1.42;0.98;;;;;;;20.97;72.68;99585.91;5010908;28;20026;-71
2021/09/09 10:33:45;;;;;;;1.05;0.80;;;;;;;20.81;73.31;99580.31;4983696;28;20026;-72
2021/09/09 10:36:40;;;;;;;0.63;0.55;;;;;;;20.79;73.44;99585.44;4998485;28;20030;-72
2021/09/09 10:39:14;;;;;;;0.95;0.65;;;;;;;20.81;74.21;99585.88;4997158;28;20022;-72
2021/09/09 10:41:42;;;;;;;1.20;0.80;;;;;;;20.90;74.15;99581.00;5007528;28;20046;-75
2021/09/09 10:44:11;;;;;;;0.75;0.70;;;;;;;20.96;74.17;99585.13;5007262;28;20065;-75
2021/09/09 10:46:42;;;;;;;2.53;1.05;;;;;;;20.90;73.55;99570.66;5003270;28;20054;-71
2021/09/09 10:49:07;;;;;;;2.42;1.10;;;;;;;20.91;73.63;99588.16;5007861;28;20498;-75
2021/09/09 10:51:33;;;;;;;0.98;0.85;;;;;;;20.83;73.53;99569.69;5008305;28;20034;-71
2021/09/09 10:53:59;;;;;;;1.38;1.00;;;;;;;20.92;73.89;99567.53;5002752;28;20014;-71
2021/09/09 10:56:26;;;;;;;1.15;0.85;;;;;;;21.07;73.54;99569.53;5006990;28;20061;-72
2021/09/09 10:59:19;;;;;;;0.60;0.60;;;;;;;21.35;73.50;99574.19;5008185;28;20036;-72
2021/09/09 11:01:47;;;;;;;1.42;0.73;;;;;;;21.53;73.36;99565.50;4994134;28;20052;-71
2021/09/09 11:04:26;;;;;;;5.22;0.90;;;;;;;21.53;72.47;99576.63;4992481;28;20030;-70
2021/09/09 11:06:53;;;;;;;1.30;0.90;;;;;;;21.35;72.27;99574.19;5004651;28;20029;-70
2021/09/09 11:09:19;;;;;;;1.83;1.10;;;;;;;21.26;72.93;99570.78;5004054;28;20039;-68
2021/09/09 11:11:47;;;;;;;0.70;0.70;;;;;;;21.44;72.78;99569.25;5002940;28;20049;-67
2021/09/09 11:14:14;;;;;;;1.75;1.08;;;;;;;21.85;72.76;99584.94;5001286;28;20041;-70
2021/09/09 11:16:40;;;;;;;1.40;1.10;;;;;;;22.50;72.14;99570.41;4975787;28;20140;-67
2021/09/09 11:19:08;;;;;;;2.40;1.52;;;;;;;23.24;71.19;99563.81;4997455;28;20567;-67
2021/09/09 11:21:41;;;;;;;2.50;1.30;;;;;;;23.81;67.94;99569.47;5005748;28;20052;-69
2021/09/09 11:24:09;;;;;;;3.42;1.20;;;;;;;23.70;65.67;99565.75;4986530;28;20076;-69
2021/09/09 11:26:36;;;;;;;0.50;0.45;;;;;;;23.35;65.35;99564.81;5004149;28;20014;-68